KRKS/RKS METAR and TAF weather

Enter ICAO airport designator
Station Type Date Time Source
KRKS METAR 2018/12/12 06:54 UTC NOAA

KRKS 120654Z AUTO 22008KT 10SM OVC100 M07/M11 A3003 RMK AO2 SLP212 T10671111 410281133


Station Type Date Time Source
KRKS Decoded METAR 2018/12/12 06:54 UTC NOAA

ROCK SPRINGS-SWEETWATER CO, WY, United States (KRKS) 41-36N 109-03W
Dec 12, 2018 - 01:54 AM EST / 2018.12.12 0654 UTC
Wind: from the SW (220 degrees) at 9 MPH (8 KT):0
Visibility: 10 mile(s):0
Sky conditions: overcast
Temperature: 19.9 F (-6.7 C)
Windchill: 8 F (-13 C):1
Dew Point: 12.0 F (-11.1 C)
Relative Humidity: 70%
Pressure (altimeter): 30.03 in. Hg (1016 hPa)
ob: KRKS 120654Z AUTO 22008KT 10SM OVC100 M07/M11 A3003 RMK AO2 SLP212 T10671111 410281133
cycle: 7

Station Type Date Time Source
KRKS TAF 2018/12/12 06:34 UTC NOAA

TAF KRKS 120531Z 1206/1306 25013KT P6SM BKN200
FM121300 25011KT P6SM BKN080
FM121500 24015G25KT P6SM VCSH OVC025
FM121800 26030G45KT P6SM VCSH OVC030
FM130000 27020G30KT P6SM SCT030 BKN060
FM130300 27016G26KT P6SM FEW060


Example: see airport list